sensor_id;sensor_type;location;lat;lon;timestamp;pressure;altitude;pressure_sealevel;temperature;humidity
49040;BME280;36811;49.732;13.402;2022-09-09T00:03:45;97563.03;;;13.96;100.00
49040;BME280;36811;49.732;13.402;2022-09-09T00:06:32;97560.63;;;13.94;100.00
49040;BME280;36811;49.732;13.402;2022-09-09T00:09:17;97561.47;;;13.90;100.00
49040;BME280;36811;49.732;13.402;2022-09-09T00:17:30;97556.41;;;13.88;100.00
49040;BME280;36811;49.732;13.402;2022-09-09T00:20:00;97560.66;;;13.89;100.00
49040;BME280;36811;49.732;13.402;2022-09-09T00:22:29;97557.19;;;13.89;100.00
49040;BME280;36811;49.732;13.402;2022-09-09T00:27:48;97554.53;;;13.89;100.00
49040;BME280;36811;49.732;13.402;2022-09-09T00:30:24;97562.03;;;13.87;100.00
49040;BME280;36811;49.732;13.402;2022-09-09T00:32:58;97553.50;;;13.85;100.00
49040;BME280;36811;49.732;13.402;2022-09-09T00:35:27;97551.38;;;13.82;99.73
49040;BME280;36811;49.732;13.402;2022-09-09T00:38:00;97542.06;;;13.79;100.00
49040;BME280;36811;49.732;13.402;2022-09-09T00:40:35;97554.41;;;13.75;99.88
49040;BME280;36811;49.732;13.402;2022-09-09T00:48:20;97554.50;;;13.65;100.00
49040;BME280;36811;49.732;13.402;2022-09-09T00:50:56;97545.41;;;13.61;100.00
49040;BME280;36811;49.732;13.402;2022-09-09T00:56:26;97547.09;;;13.52;100.00
49040;BME280;36811;49.732;13.402;2022-09-09T00:59:08;97543.66;;;13.47;99.89
49040;BME280;36811;49.732;13.402;2022-09-09T01:01:37;97550.38;;;13.44;100.00
49040;BME280;36811;49.732;13.402;2022-09-09T01:04:10;97548.28;;;13.36;100.00
49040;BME280;36811;49.732;13.402;2022-09-09T01:06:43;97545.63;;;13.36;100.00
49040;BME280;36811;49.732;13.402;2022-09-09T01:09:42;97550.44;;;13.34;100.00
49040;BME280;36811;49.732;13.402;2022-09-09T01:12:16;97548.31;;;13.31;100.00
49040;BME280;36811;49.732;13.402;2022-09-09T01:14:48;97544.63;;;13.27;100.00
49040;BME280;36811;49.732;13.402;2022-09-09T01:17:27;97544.16;;;13.20;100.00
49040;BME280;36811;49.732;13.402;2022-09-09T01:20:10;97540.69;;;13.19;100.00
49040;BME280;36811;49.732;13.402;2022-09-09T01:27:54;97544.91;;;13.25;100.00
49040;BME280;36811;49.732;13.402;2022-09-09T01:30:22;97539.84;;;13.24;100.00
49040;BME280;36811;49.732;13.402;2022-09-09T01:32:54;97539.28;;;13.27;100.00
49040;BME280;36811;49.732;13.402;2022-09-09T01:38:04;97542.28;;;13.20;100.00
49040;BME280;36811;49.732;13.402;2022-09-09T01:40:31;97544.38;;;13.23;100.00
49040;BME280;36811;49.732;13.402;2022-09-09T01:42:57;97546.28;;;13.23;100.00
49040;BME280;36811;49.732;13.402;2022-09-09T01:45:24;97542.28;;;13.20;100.00
49040;BME280;36811;49.732;13.402;2022-09-09T01:47:52;97551.38;;;13.14;100.00
49040;BME280;36811;49.732;13.402;2022-09-09T01:50:19;97549.53;;;13.15;100.00
49040;BME280;36811;49.732;13.402;2022-09-09T01:52:50;97548.44;;;13.16;100.00
49040;BME280;36811;49.732;13.402;2022-09-09T01:55:28;97539.66;;;13.15;100.00
49040;BME280;36811;49.732;13.402;2022-09-09T02:01:21;97546.34;;;13.13;100.00
49040;BME280;36811;49.732;13.402;2022-09-09T02:03:56;97539.13;;;13.08;100.00
49040;BME280;36811;49.732;13.402;2022-09-09T02:06:35;97544.75;;;13.07;100.00
49040;BME280;36811;49.732;13.402;2022-09-09T02:09:07;97539.94;;;13.04;100.00
49040;BME280;36811;49.732;13.402;2022-09-09T02:11:36;97538.66;;;12.96;100.00
49040;BME280;36811;49.732;13.402;2022-09-09T02:14:12;97557.63;;;12.95;100.00
49040;BME280;36811;49.732;13.402;2022-09-09T02:16:49;97544.50;;;12.98;100.00
49040;BME280;36811;49.732;13.402;2022-09-09T02:19:21;97551.75;;;12.98;100.00
49040;BME280;36811;49.732;13.402;2022-09-09T02:21:53;97546.63;;;13.01;100.00
49040;BME280;36811;49.732;13.402;2022-09-09T02:24:21;97543.97;;;13.01;100.00
49040;BME280;36811;49.732;13.402;2022-09-09T02:26:51;97545.31;;;12.99;100.00
49040;BME280;36811;49.732;13.402;2022-09-09T02:29:21;97542.16;;;12.92;100.00
49040;BME280;36811;49.732;13.402;2022-09-09T02:31:49;97541.91;;;12.88;100.00
49040;BME280;36811;49.732;13.402;2022-09-09T02:34:18;97543.25;;;12.86;100.00
49040;BME280;36811;49.732;13.402;2022-09-09T02:36:46;97543.53;;;12.84;100.00
49040;BME280;36811;49.732;13.402;2022-09-09T02:39:13;97536.88;;;12.82;100.00
49040;BME280;36811;49.732;13.402;2022-09-09T02:41:41;97548.59;;;12.86;100.00
49040;BME280;36811;49.732;13.402;2022-09-09T02:44:15;97543.78;;;12.83;100.00
49040;BME280;36811;49.732;13.402;2022-09-09T02:49:28;97540.38;;;12.77;100.00
49040;BME280;36811;49.732;13.402;2022-09-09T02:52:05;97544.38;;;12.80;100.00
49040;BME280;36811;49.732;13.402;2022-09-09T02:54:34;97546.47;;;12.83;100.00
49040;BME280;36811;49.732;13.402;2022-09-09T02:57:11;97548.34;;;12.82;100.00
49040;BME280;36811;49.732;13.402;2022-09-09T02:59:39;97546.00;;;12.70;100.00
49040;BME280;36811;49.732;13.402;2022-09-09T03:02:05;97541.00;;;12.59;100.00
49040;BME280;36811;49.732;13.402;2022-09-09T03:04:31;97540.19;;;12.58;100.00
49040;BME280;36811;49.732;13.402;2022-09-09T03:06:58;97550.31;;;12.61;100.00
49040;BME280;36811;49.732;13.402;2022-09-09T03:09:24;97541.22;;;12.62;100.00
49040;BME280;36811;49.732;13.402;2022-09-09T03:11:51;97550.56;;;12.65;100.00
49040;BME280;36811;49.732;13.402;2022-09-09T03:14:17;97558.28;;;12.71;100.00
49040;BME280;36811;49.732;13.402;2022-09-09T03:16:47;97557.19;;;12.72;100.00
49040;BME280;36811;49.732;13.402;2022-09-09T03:19:13;97548.41;;;12.72;100.00
49040;BME280;36811;49.732;13.402;2022-09-09T03:21:39;97554.53;;;12.72;100.00
49040;BME280;36811;49.732;13.402;2022-09-09T03:24:05;97556.66;;;12.70;100.00
49040;BME280;36811;49.732;13.402;2022-09-09T03:26:32;97548.41;;;12.72;100.00
49040;BME280;36811;49.732;13.402;2022-09-09T03:28:58;97552.94;;;12.71;100.00
49040;BME280;36811;49.732;13.402;2022-09-09T03:31:26;97556.94;;;12.69;100.00
49040;BME280;36811;49.732;13.402;2022-09-09T03:33:57;97550.34;;;12.56;100.00
49040;BME280;36811;49.732;13.402;2022-09-09T03:36:25;97546.09;;;12.50;100.00
49040;BME280;36811;49.732;13.402;2022-09-09T03:38:52;97554.38;;;12.49;100.00
49040;BME280;36811;49.732;13.402;2022-09-09T03:41:20;97556.50;;;12.52;100.00
49040;BME280;36811;49.732;13.402;2022-09-09T03:43:52;97541.81;;;12.54;100.00
49040;BME280;36811;49.732;13.402;2022-09-09T03:46:20;97550.88;;;12.53;100.00
49040;BME280;36811;49.732;13.402;2022-09-09T03:48:46;97548.75;;;12.50;100.00
49040;BME280;36811;49.732;13.402;2022-09-09T03:51:12;97553.59;;;12.43;100.00
49040;BME280;36811;49.732;13.402;2022-09-09T03:53:38;97546.44;;;12.34;100.00
49040;BME280;36811;49.732;13.402;2022-09-09T03:56:06;97549.66;;;12.26;100.00
49040;BME280;36811;49.732;13.402;2022-09-09T03:58:34;97546.19;;;12.20;100.00
49040;BME280;36811;49.732;13.402;2022-09-09T04:01:05;97541.94;;;12.24;100.00
49040;BME280;36811;49.732;13.402;2022-09-09T04:03:34;97541.38;;;12.27;100.00
49040;BME280;36811;49.732;13.402;2022-09-09T04:06:02;97545.34;;;12.30;100.00
49040;BME280;36811;49.732;13.402;2022-09-09T04:08:29;97534.44;;;12.26;100.00
49040;BME280;36811;49.732;13.402;2022-09-09T04:10:57;97534.44;;;12.26;100.00
49040;BME280;36811;49.732;13.402;2022-09-09T04:13:24;97540.81;;;12.30;100.00
49040;BME280;36811;49.732;13.402;2022-09-09T04:15:55;97544.03;;;12.22;100.00
49040;BME280;36811;49.732;13.402;2022-09-09T04:18:23;97538.72;;;12.22;100.00
49040;BME280;36811;49.732;13.402;2022-09-09T04:20:50;97544.84;;;12.23;100.00
49040;BME280;36811;49.732;13.402;2022-09-09T04:23:17;97538.69;;;12.32;100.00
49040;BME280;36811;49.732;13.402;2022-09-09T04:25:48;97538.44;;;12.34;100.00
49040;BME280;36811;49.732;13.402;2022-09-09T04:28:16;97544.00;;;12.32;100.00
49040;BME280;36811;49.732;13.402;2022-09-09T04:30:43;97535.50;;;12.30;100.00
49040;BME280;36811;49.732;13.402;2022-09-09T04:33:09;97535.25;;;12.32;100.00
49040;BME280;36811;49.732;13.402;2022-09-09T04:35:36;97534.97;;;12.28;100.00
49040;BME280;36811;49.732;13.402;2022-09-09T04:38:03;97541.66;;;12.26;100.00
49040;BME280;36811;49.732;13.402;2022-09-09T04:40:29;97539.25;;;12.29;100.00
49040;BME280;36811;49.732;13.402;2022-09-09T04:43:00;97537.63;;;12.33;100.00
49040;BME280;36811;49.732;13.402;2022-09-09T04:45:26;97546.44;;;12.29;100.00
49040;BME280;36811;49.732;13.402;2022-09-09T04:47:52;97543.25;;;12.32;100.00
49040;BME280;36811;49.732;13.402;2022-09-09T04:50:18;97545.06;;;12.41;100.00
49040;BME280;36811;49.732;13.402;2022-09-09T04:52:44;97546.09;;;12.45;100.00
49040;BME280;36811;49.732;13.402;2022-09-09T04:55:10;97551.22;;;12.42;99.61
49040;BME280;36811;49.732;13.402;2022-09-09T04:57:39;97556.56;;;12.37;100.00
49040;BME280;36811;49.732;13.402;2022-09-09T05:00:05;97552.00;;;12.37;100.00
49040;BME280;36811;49.732;13.402;2022-09-09T05:02:31;97553.59;;;12.38;99.96
49040;BME280;36811;49.732;13.402;2022-09-09T05:04:58;97556.00;;;12.40;99.46
49040;BME280;36811;49.732;13.402;2022-09-09T05:07:27;97550.66;;;12.35;100.00
49040;BME280;36811;49.732;13.402;2022-09-09T05:09:52;97551.22;;;12.37;99.21
49040;BME280;36811;49.732;13.402;2022-09-09T05:12:19;97557.09;;;12.34;99.51
49040;BME280;36811;49.732;13.402;2022-09-09T05:14:44;97547.75;;;12.36;99.69
49040;BME280;36811;49.732;13.402;2022-09-09T05:17:10;97558.66;;;12.35;99.73
49040;BME280;36811;49.732;13.402;2022-09-09T05:19:36;97562.63;;;12.47;99.66
49040;BME280;36811;49.732;13.402;2022-09-09T05:22:02;97558.88;;;12.53;99.64
49040;BME280;36811;49.732;13.402;2022-09-09T05:24:28;97554.03;;;12.60;98.83
49040;BME280;36811;49.732;13.402;2022-09-09T05:26:54;97571.06;;;12.74;98.02
49040;BME280;36811;49.732;13.402;2022-09-09T05:29:23;97570.50;;;12.77;97.01
49040;BME280;36811;49.732;13.402;2022-09-09T05:31:49;97563.63;;;12.71;97.30
49040;BME280;36811;49.732;13.402;2022-09-09T05:34:14;97573.78;;;12.69;97.38
49040;BME280;36811;49.732;13.402;2022-09-09T05:36:40;97570.53;;;12.72;97.60
49040;BME280;36811;49.732;13.402;2022-09-09T05:39:06;97576.88;;;12.87;96.85
49040;BME280;36811;49.732;13.402;2022-09-09T05:41:31;97579.00;;;12.95;96.70
49040;BME280;36811;49.732;13.402;2022-09-09T05:43:58;97569.91;;;12.91;96.01
49040;BME280;36811;49.732;13.402;2022-09-09T05:46:26;97579.63;;;12.71;96.67
49040;BME280;36811;49.732;13.402;2022-09-09T05:48:53;97568.06;;;12.86;97.25
49040;BME280;36811;49.732;13.402;2022-09-09T05:51:21;97561.19;;;13.24;96.54
49040;BME280;36811;49.732;13.402;2022-09-09T05:53:48;97566.75;;;13.32;95.35
49040;BME280;36811;49.732;13.402;2022-09-09T05:56:17;97565.38;;;13.40;94.18
49040;BME280;36811;49.732;13.402;2022-09-09T05:58:44;97562.97;;;13.38;93.92
49040;BME280;36811;49.732;13.402;2022-09-09T06:01:20;97558.47;;;13.34;93.36
49040;BME280;36811;49.732;13.402;2022-09-09T06:03:48;97555.25;;;13.37;93.83
49040;BME280;36811;49.732;13.402;2022-09-09T06:06:19;97577.91;;;13.78;93.49
49040;BME280;36811;49.732;13.402;2022-09-09T06:08:51;97568.84;;;14.32;91.51
49040;BME280;36811;49.732;13.402;2022-09-09T06:11:21;97575.78;;;14.99;89.10
49040;BME280;36811;49.732;13.402;2022-09-09T06:13:47;97578.03;;;14.92;88.47
49040;BME280;36811;49.732;13.402;2022-09-09T06:16:18;97574.19;;;15.16;88.74
49040;BME280;36811;49.732;13.402;2022-09-09T06:18:44;97569.97;;;15.66;87.15
49040;BME280;36811;49.732;13.402;2022-09-09T06:21:25;97568.91;;;16.27;83.15
49040;BME280;36811;49.732;13.402;2022-09-09T06:23:51;97573.31;;;16.91;82.33
49040;BME280;36811;49.732;13.402;2022-09-09T06:26:23;97568.69;;;17.76;78.59
49040;BME280;36811;49.732;13.402;2022-09-09T06:28:51;97569.56;;;18.47;78.54
49040;BME280;36811;49.732;13.402;2022-09-09T06:31:21;97583.25;;;19.33;76.00
49040;BME280;36811;49.732;13.402;2022-09-09T06:33:48;97583.94;;;19.73;72.70
49040;BME280;36811;49.732;13.402;2022-09-09T06:36:17;97595.63;;;20.02;72.85
49040;BME280;36811;49.732;13.402;2022-09-09T06:38:44;97591.13;;;21.08;69.42
49040;BME280;36811;49.732;13.402;2022-09-09T06:41:12;97589.47;;;20.86;70.04
49040;BME280;36811;49.732;13.402;2022-09-09T06:43:38;97591.03;;;20.58;68.92
49040;BME280;36811;49.732;13.402;2022-09-09T06:46:28;97587.69;;;20.90;66.98
49040;BME280;36811;49.732;13.402;2022-09-09T06:48:56;97591.84;;;20.87;67.39
49040;BME280;36811;49.732;13.402;2022-09-09T06:51:24;97599.47;;;20.94;67.71
49040;BME280;36811;49.732;13.402;2022-09-09T06:53:53;97604.28;;;21.38;66.95
49040;BME280;36811;49.732;13.402;2022-09-09T06:56:25;97587.94;;;22.09;65.70
49040;BME280;36811;49.732;13.402;2022-09-09T06:58:56;97602.78;;;21.91;63.78
49040;BME280;36811;49.732;13.402;2022-09-09T07:01:27;97595.44;;;21.71;63.03
49040;BME280;36811;49.732;13.402;2022-09-09T07:03:55;97593.78;;;21.16;64.28
49040;BME280;36811;49.732;13.402;2022-09-09T07:06:29;97592.81;;;21.21;65.21
49040;BME280;36811;49.732;13.402;2022-09-09T07:08:57;97601.06;;;21.24;66.61
49040;BME280;36811;49.732;13.402;2022-09-09T07:11:27;97593.94;;;21.61;64.40
49040;BME280;36811;49.732;13.402;2022-09-09T07:13:54;97601.44;;;21.97;64.91
49040;BME280;36811;49.732;13.402;2022-09-09T07:16:23;97598.94;;;22.82;61.61
49040;BME280;36811;49.732;13.402;2022-09-09T07:18:51;97604.09;;;23.35;60.54
49040;BME280;36811;49.732;13.402;2022-09-09T07:21:18;97592.16;;;22.75;60.78
49040;BME280;36811;49.732;13.402;2022-09-09T07:23:45;97586.28;;;22.86;61.41
49040;BME280;36811;49.732;13.402;2022-09-09T07:26:16;97594.84;;;23.12;60.56
49040;BME280;36811;49.732;13.402;2022-09-09T07:28:42;97588.47;;;23.44;60.67
49040;BME280;36811;49.732;13.402;2022-09-09T07:31:20;97598.03;;;23.93;59.69
49040;BME280;36811;49.732;13.402;2022-09-09T07:33:47;97594.56;;;24.52;58.10
49040;BME280;36811;49.732;13.402;2022-09-09T07:36:22;97593.97;;;24.43;55.76
49040;BME280;36811;49.732;13.402;2022-09-09T07:38:53;97597.59;;;24.19;57.31
49040;BME280;36811;49.732;13.402;2022-09-09T07:41:35;97602.75;;;24.68;56.54
49040;BME280;36811;49.732;13.402;2022-09-09T07:44:12;97599.41;;;25.40;57.01
49040;BME280;36811;49.732;13.402;2022-09-09T07:46:39;97607.34;;;25.83;56.21
49040;BME280;36811;49.732;13.402;2022-09-09T07:49:05;97606.28;;;26.49;52.87
49040;BME280;36811;49.732;13.402;2022-09-09T07:51:34;97602.84;;;26.75;51.17
49040;BME280;36811;49.732;13.402;2022-09-09T07:54:03;97604.75;;;27.20;50.67
49040;BME280;36811;49.732;13.402;2022-09-09T07:56:29;97605.44;;;27.39;49.04
49040;BME280;36811;49.732;13.402;2022-09-09T07:58:57;97615.38;;;27.02;50.28
49040;BME280;36811;49.732;13.402;2022-09-09T08:01:36;97606.16;;;27.36;51.48
49040;BME280;36811;49.732;13.402;2022-09-09T08:04:07;97607.88;;;27.44;49.73
49040;BME280;36811;49.732;13.402;2022-09-09T08:06:40;97609.81;;;27.73;49.21
49040;BME280;36811;49.732;13.402;2022-09-09T08:09:08;97603.59;;;27.77;48.66
49040;BME280;36811;49.732;13.402;2022-09-09T08:11:35;97600.16;;;27.83;48.67
49040;BME280;36811;49.732;13.402;2022-09-09T08:14:02;97599.25;;;28.02;47.54
49040;BME280;36811;49.732;13.402;2022-09-09T08:16:33;97596.28;;;28.17;47.23
49040;BME280;36811;49.732;13.402;2022-09-09T08:19:02;97592.47;;;27.92;46.71
49040;BME280;36811;49.732;13.402;2022-09-09T08:21:31;97580.84;;;27.69;47.37
49040;BME280;36811;49.732;13.402;2022-09-09T08:24:00;97591.22;;;27.30;48.24
49040;BME280;36811;49.732;13.402;2022-09-09T08:26:29;97588.19;;;27.61;47.60
49040;BME280;36811;49.732;13.402;2022-09-09T08:28:58;97593.06;;;28.08;47.36
49040;BME280;36811;49.732;13.402;2022-09-09T08:31:29;97586.72;;;28.01;46.31
49040;BME280;36811;49.732;13.402;2022-09-09T08:33:57;97584.19;;;27.55;48.24
49040;BME280;36811;49.732;13.402;2022-09-09T08:36:26;97585.41;;;28.24;47.43
49040;BME280;36811;49.732;13.402;2022-09-09T08:38:55;97594.28;;;28.51;45.30
49040;BME280;36811;49.732;13.402;2022-09-09T08:52:27;97606.28;;;29.24;43.66
49040;BME280;36811;49.732;13.402;2022-09-09T08:54:58;97604.66;;;29.84;43.60
49040;BME280;36811;49.732;13.402;2022-09-09T08:57:28;97599.81;;;29.56;43.77
49040;BME280;36811;49.732;13.402;2022-09-09T08:59:57;97589.94;;;30.35;42.73
49040;BME280;36811;49.732;13.402;2022-09-09T09:02:38;97590.38;;;30.51;41.02
49040;BME280;36811;49.732;13.402;2022-09-09T09:10:25;97591.03;;;30.16;41.78
49040;BME280;36811;49.732;13.402;2022-09-09T09:12:57;97598.22;;;30.59;44.94
49040;BME280;36811;49.732;13.402;2022-09-09T09:15:26;97605.69;;;30.80;41.24
49040;BME280;36811;49.732;13.402;2022-09-09T09:17:54;97605.06;;;29.90;41.93
49040;BME280;36811;49.732;13.402;2022-09-09T09:21:12;97600.78;;;29.99;42.38
49040;BME280;36811;49.732;13.402;2022-09-09T09:23:17;97605.88;;;29.22;43.95
49040;BME280;36811;49.732;13.402;2022-09-09T09:25:46;97596.00;;;29.14;43.35
49040;BME280;36811;49.732;13.402;2022-09-09T09:28:17;97600.13;;;28.90;43.02
49040;BME280;36811;49.732;13.402;2022-09-09T09:30:57;97601.72;;;28.94;44.41
49040;BME280;36811;49.732;13.402;2022-09-09T09:33:44;97593.75;;;28.75;43.88
49040;BME280;36811;49.732;13.402;2022-09-09T09:36:12;97592.38;;;29.03;43.73
49040;BME280;36811;49.732;13.402;2022-09-09T09:38:52;97588.28;;;29.26;44.53
49040;BME280;36811;49.732;13.402;2022-09-09T09:41:35;97603.50;;;29.20;44.03
49040;BME280;36811;49.732;13.402;2022-09-09T09:44:03;97605.50;;;28.79;43.74
49040;BME280;36811;49.732;13.402;2022-09-09T09:46:30;97599.75;;;28.91;43.74
49040;BME280;36811;49.732;13.402;2022-09-09T09:49:04;97582.00;;;29.98;41.70
49040;BME280;36811;49.732;13.402;2022-09-09T09:51:32;97584.03;;;29.36;44.71
49040;BME280;36811;49.732;13.402;2022-09-09T09:54:17;97585.34;;;29.02;43.92
49040;BME280;36811;49.732;13.402;2022-09-09T09:56:44;97588.41;;;28.93;44.75
49040;BME280;36811;49.732;13.402;2022-09-09T10:01:53;97591.22;;;29.04;42.91
49040;BME280;36811;49.732;13.402;2022-09-09T10:04:21;97582.50;;;28.47;44.27
49040;BME280;36811;49.732;13.402;2022-09-09T10:06:50;97579.16;;;28.64;44.39
49040;BME280;36811;49.732;13.402;2022-09-09T10:09:25;97589.28;;;29.04;43.13
49040;BME280;36811;49.732;13.402;2022-09-09T10:12:02;97594.00;;;28.23;44.25
49040;BME280;36811;49.732;13.402;2022-09-09T10:14:52;97575.63;;;27.31;44.92
49040;BME280;36811;49.732;13.402;2022-09-09T10:17:32;97571.63;;;27.81;46.18
49040;BME280;36811;49.732;13.402;2022-09-09T10:20:31;97558.06;;;27.91;45.37
49040;BME280;36811;49.732;13.402;2022-09-09T10:31:50;97581.28;;;24.78;51.87
49040;BME280;36811;49.732;13.402;2022-09-09T10:37:16;97582.66;;;24.41;53.15
49040;BME280;36811;49.732;13.402;2022-09-09T10:39:50;97576.91;;;23.59;55.39
49040;BME280;36811;49.732;13.402;2022-09-09T10:42:30;97592.59;;;22.90;56.40
49040;BME280;36811;49.732;13.402;2022-09-09T10:56:10;97607.09;;;22.37;56.92
49040;BME280;36811;49.732;13.402;2022-09-09T10:58:51;97596.47;;;21.99;57.18
49040;BME280;36811;49.732;13.402;2022-09-09T11:01:22;97599.53;;;21.97;56.89
49040;BME280;36811;49.732;13.402;2022-09-09T11:03:59;97595.56;;;22.28;56.95
49040;BME280;36811;49.732;13.402;2022-09-09T11:06:31;97606.28;;;22.81;55.43
49040;BME280;36811;49.732;13.402;2022-09-09T11:09:00;97599.81;;;23.22;54.94
49040;BME280;36811;49.732;13.402;2022-09-09T11:11:42;97603.81;;;23.64;53.71
49040;BME280;36811;49.732;13.402;2022-09-09T11:14:15;97605.84;;;23.67;52.89
49040;BME280;36811;49.732;13.402;2022-09-09T11:16:56;97606.72;;;23.71;53.22
49040;BME280;36811;49.732;13.402;2022-09-09T11:19:38;97604.00;;;23.71;52.72
49040;BME280;36811;49.732;13.402;2022-09-09T11:24:49;97615.56;;;23.68;53.23
49040;BME280;36811;49.732;13.402;2022-09-09T11:27:27;97613.41;;;23.74;53.64
49040;BME280;36811;49.732;13.402;2022-09-09T11:40:40;97610.44;;;24.07;51.70
49040;BME280;36811;49.732;13.402;2022-09-09T11:43:27;97607.78;;;23.94;51.89
49040;BME280;36811;49.732;13.402;2022-09-09T11:45:56;97612.16;;;24.27;51.63
49040;BME280;36811;49.732;13.402;2022-09-09T11:48:42;97614.44;;;23.97;52.08
49040;BME280;36811;49.732;13.402;2022-09-09T11:51:27;97611.38;;;23.71;51.66
49040;BME280;36811;49.732;13.402;2022-09-09T11:54:02;97611.66;;;23.54;51.63
49040;BME280;36811;49.732;13.402;2022-09-09T11:56:33;97608.19;;;23.17;52.00
49040;BME280;36811;49.732;13.402;2022-09-09T11:59:05;97611.22;;;23.27;52.29
49040;BME280;36811;49.732;13.402;2022-09-09T12:01:39;97615.56;;;24.08;51.23
49040;BME280;36811;49.732;13.402;2022-09-09T12:04:30;97614.59;;;24.75;51.00
49040;BME280;36811;49.732;13.402;2022-09-09T12:07:02;97607.84;;;24.85;50.62
49040;BME280;36811;49.732;13.402;2022-09-09T12:14:54;97607.47;;;23.20;53.31
49040;BME280;36811;49.732;13.402;2022-09-09T12:17:23;97613.53;;;22.89;54.06
49040;BME280;36811;49.732;13.402;2022-09-09T12:20:16;97617.44;;;22.80;54.66
49040;BME280;36811;49.732;13.402;2022-09-09T12:23:14;97606.50;;;22.76;54.62
49040;BME280;36811;49.732;13.402;2022-09-09T12:26:07;97607.72;;;23.03;55.18
49040;BME280;36811;49.732;13.402;2022-09-09T12:36:57;97575.81;;;25.82;50.66
49040;BME280;36811;49.732;13.402;2022-09-09T12:39:39;97576.84;;;25.40;50.16
49040;BME280;36811;49.732;13.402;2022-09-09T12:42:19;97579.66;;;25.27;50.98
49040;BME280;36811;49.732;13.402;2022-09-09T12:44:52;97576.09;;;24.89;51.92
49040;BME280;36811;49.732;13.402;2022-09-09T12:47:21;97571.84;;;24.60;51.29
49040;BME280;36811;49.732;13.402;2022-09-09T12:49:50;97569.94;;;24.60;51.70
49040;BME280;36811;49.732;13.402;2022-09-09T12:52:37;97561.88;;;24.64;52.02
49040;BME280;36811;49.732;13.402;2022-09-09T12:55:05;97568.06;;;24.64;51.71
49040;BME280;36811;49.732;13.402;2022-09-09T12:57:38;97563.16;;;25.01;51.12
49040;BME280;36811;49.732;13.402;2022-09-09T13:00:10;97554.19;;;24.70;51.01
49040;BME280;36811;49.732;13.402;2022-09-09T13:02:45;97552.94;;;24.79;51.58
49040;BME280;36811;49.732;13.402;2022-09-09T13:05:20;97557.59;;;25.13;49.50
49040;BME280;36811;49.732;13.402;2022-09-09T13:07:46;97553.84;;;25.02;49.91
49040;BME280;36811;49.732;13.402;2022-09-09T13:10:15;97543.22;;;24.97;50.63
49040;BME280;36811;49.732;13.402;2022-09-09T13:12:44;97536.94;;;25.66;48.98
49040;BME280;36811;49.732;13.402;2022-09-09T13:15:19;97523.25;;;25.82;47.09
49040;BME280;36811;49.732;13.402;2022-09-09T13:17:54;97527.19;;;25.65;47.46
49040;BME280;36811;49.732;13.402;2022-09-09T13:20:21;97529.25;;;25.91;46.65
49040;BME280;36811;49.732;13.402;2022-09-09T13:22:49;97526.47;;;26.29;45.58
49040;BME280;36811;49.732;13.402;2022-09-09T13:25:27;97516.41;;;26.33;46.08
49040;BME280;36811;49.732;13.402;2022-09-09T13:27:59;97517.81;;;26.73;44.52
49040;BME280;36811;49.732;13.402;2022-09-09T13:30:29;97512.91;;;27.08;44.91
49040;BME280;36811;49.732;13.402;2022-09-09T13:35:51;97503.25;;;26.88;45.08
49040;BME280;36811;49.732;13.402;2022-09-09T13:38:18;97514.16;;;26.88;44.47
49040;BME280;36811;49.732;13.402;2022-09-09T13:40:58;97507.03;;;26.80;44.16
49040;BME280;36811;49.732;13.402;2022-09-09T13:43:27;97496.72;;;26.70;44.22
49040;BME280;36811;49.732;13.402;2022-09-09T13:46:01;97501.91;;;27.04;43.59
49040;BME280;36811;49.732;13.402;2022-09-09T13:48:28;97488.53;;;27.22;43.66
49040;BME280;36811;49.732;13.402;2022-09-09T13:51:02;97489.75;;;27.58;42.61
49040;BME280;36811;49.732;13.402;2022-09-09T13:53:31;97492.91;;;27.30;42.02
49040;BME280;36811;49.732;13.402;2022-09-09T13:55:57;97484.22;;;27.88;42.62
49040;BME280;36811;49.732;13.402;2022-09-09T13:58:24;97475.75;;;28.00;39.61
49040;BME280;36811;49.732;13.402;2022-09-09T14:00:52;97498.19;;;27.79;39.28
49040;BME280;36811;49.732;13.402;2022-09-09T14:03:19;97480.78;;;27.94;39.84
49040;BME280;36811;49.732;13.402;2022-09-09T14:05:46;97479.03;;;28.16;39.72
49040;BME280;36811;49.732;13.402;2022-09-09T14:08:20;97477.59;;;28.25;39.88
49040;BME280;36811;49.732;13.402;2022-09-09T14:10:47;97465.34;;;29.21;39.42
49040;BME280;36811;49.732;13.402;2022-09-09T14:13:13;97467.41;;;29.42;39.31
49040;BME280;36811;49.732;13.402;2022-09-09T14:15:40;97462.69;;;29.42;37.41
49040;BME280;36811;49.732;13.402;2022-09-09T14:18:05;97465.84;;;29.51;38.51
49040;BME280;36811;49.732;13.402;2022-09-09T14:20:31;97466.69;;;29.66;38.48
49040;BME280;36811;49.732;13.402;2022-09-09T14:22:57;97477.72;;;29.84;38.15
49040;BME280;36811;49.732;13.402;2022-09-09T14:25:23;97477.75;;;30.01;37.89
49040;BME280;36811;49.732;13.402;2022-09-09T14:27:49;97480.47;;;29.91;37.74
49040;BME280;36811;49.732;13.402;2022-09-09T14:30:17;97481.91;;;29.49;36.97
49040;BME280;36811;49.732;13.402;2022-09-09T14:32:42;97485.41;;;29.39;37.02
49040;BME280;36811;49.732;13.402;2022-09-09T14:35:08;97482.72;;;29.61;37.10
49040;BME280;36811;49.732;13.402;2022-09-09T14:37:34;97471.06;;;29.88;36.75
49040;BME280;36811;49.732;13.402;2022-09-09T14:39:59;97473.03;;;29.98;35.76
49040;BME280;36811;49.732;13.402;2022-09-09T14:42:25;97483.94;;;29.74;36.71
49040;BME280;36811;49.732;13.402;2022-09-09T14:44:52;97476.56;;;28.99;37.26
49040;BME280;36811;49.732;13.402;2022-09-09T14:47:18;97487.53;;;28.04;38.66
49040;BME280;36811;49.732;13.402;2022-09-09T14:49:43;97481.78;;;26.86;40.71
49040;BME280;36811;49.732;13.402;2022-09-09T14:52:10;97474.78;;;26.63;41.26